Time;durP1;ratioP1;P1;durP2;ratioP2;P2;SDS_P1;SDS_P2;PMS_P1;PMS_P2;Temp;Humidity;BMP_temperature;BMP_pressure;BME280_temperature;BME280_humidity;BME280_pressure;Samples;Min_cycle;Max_cycle;Signal;HPM_P1;HPM_P2
2023/01/14 00:01:43;;;;;;;;;0.00;0.00;;;;;9.43;75.72;101210.59;4995455;28;45434;-71
2023/01/14 00:04:09;;;;;;;;;0.00;0.00;;;;;9.27;75.51;101173.44;4996544;28;45529;-69
2023/01/14 00:06:37;;;;;;;;;0.00;0.00;;;;;9.35;75.11;101158.09;4996924;28;45398;-71
2023/01/14 00:09:06;;;;;;;;;0.00;0.00;;;;;9.62;74.92;101184.53;4994910;28;45332;-69
2023/01/14 00:14:22;;;;;;;;;0.33;0.33;;;;;9.72;74.39;101178.88;4997833;28;45502;-70
2023/01/14 00:16:48;;;;;;;;;1.00;0.67;;;;;9.70;74.40;101171.81;4999616;28;45493;-72
2023/01/14 00:19:15;;;;;;;;;0.00;0.00;;;;;9.52;74.27;101141.50;5001060;28;46015;-71
2023/01/14 00:21:41;;;;;;;;;0.00;0.00;;;;;9.60;74.31;101147.03;4994508;28;45545;-68
2023/01/14 00:24:08;;;;;;;;;0.00;0.00;;;;;9.68;74.54;101148.28;5000794;28;45463;-72
2023/01/14 00:26:34;;;;;;;;;0.00;0.00;;;;;9.68;74.30;101153.47;5001495;28;45402;-70
2023/01/14 00:28:59;;;;;;;;;0.00;0.00;;;;;9.71;74.07;101156.25;4999182;28;46047;-68
2023/01/14 00:31:27;;;;;;;;;0.00;0.00;;;;;9.61;74.11;101140.09;4998418;28;45549;-71
2023/01/14 00:33:54;;;;;;;;;0.00;0.00;;;;;9.53;74.03;101127.66;4998563;28;45510;-70
2023/01/14 00:36:23;;;;;;;;;2.00;1.00;;;;;9.69;74.07;101143.97;5000702;28;45507;-73
2023/01/14 00:38:49;;;;;;;;;1.00;1.00;;;;;9.72;74.23;101144.97;4998011;28;45568;-71
2023/01/14 00:41:18;;;;;;;;;0.00;0.00;;;;;9.74;73.97;101142.44;4998767;28;45486;-72
2023/01/14 00:43:47;;;;;;;;;0.00;0.00;;;;;9.79;73.72;101134.78;4998531;28;45462;-72
2023/01/14 00:46:16;;;;;;;;;0.00;0.00;;;;;9.80;73.29;101127.03;4996751;28;45438;-71
2023/01/14 00:48:42;;;;;;;;;0.00;0.00;;;;;9.83;73.33;101135.00;4998333;28;46370;-71
2023/01/14 00:51:09;;;;;;;;;0.00;0.00;;;;;9.83;73.09;101118.44;4997407;28;45435;-71
2023/01/14 00:53:36;;;;;;;;;0.00;0.00;;;;;9.85;72.75;101109.88;4998454;28;45896;-70
2023/01/14 00:56:01;;;;;;;;;0.00;0.00;;;;;9.99;72.69;101128.72;4998411;28;45602;-68
2023/01/14 00:58:27;;;;;;;;;0.00;0.00;;;;;9.86;72.39;101102.91;4998357;28;45771;-70
2023/01/14 01:00:53;;;;;;;;;0.00;0.00;;;;;10.00;72.46;101116.53;4998173;28;45425;-70
2023/01/14 01:03:19;;;;;;;;;0.00;0.00;;;;;10.02;72.40;101107.94;4998305;28;45570;-67
2023/01/14 01:05:46;;;;;;;;;0.00;0.00;;;;;9.84;72.10;101062.81;4998238;28;45557;-67
2023/01/14 01:08:14;;;;;;;;;0.00;0.00;;;;;10.04;72.27;101100.19;4997098;28;45561;-70
2023/01/14 01:10:44;;;;;;;;;0.00;0.00;;;;;9.90;72.06;101076.13;4999568;28;45805;-68
2023/01/14 01:13:10;;;;;;;;;0.00;0.00;;;;;9.96;71.97;101072.03;4996542;28;45376;-72
2023/01/14 01:15:36;;;;;;;;;0.00;0.00;;;;;10.08;72.05;101094.25;4999305;28;45496;-70
2023/01/14 01:18:03;;;;;;;;;0.00;0.00;;;;;10.06;71.95;101082.84;4998219;28;45382;-70
2023/01/14 01:20:29;;;;;;;;;0.00;0.00;;;;;10.08;71.89;101079.47;5000352;28;46077;-71
2023/01/14 01:22:55;;;;;;;;;0.00;0.00;;;;;9.99;71.41;101060.84;4997286;28;45544;-72
2023/01/14 01:25:21;;;;;;;;;0.00;0.00;;;;;9.93;71.53;101039.72;4998879;28;45467;-71
2023/01/14 01:27:47;;;;;;;;;0.00;0.00;;;;;10.13;71.35;101087.50;4998842;28;45864;-70
2023/01/14 01:30:13;;;;;;;;;0.00;0.00;;;;;10.12;71.26;101081.38;4999834;28;45623;-71
2023/01/14 01:32:38;;;;;;;;;0.00;0.00;;;;;10.14;71.10;101087.53;4997462;28;45611;-71
2023/01/14 01:35:04;;;;;;;;;0.00;0.00;;;;;10.10;71.71;101092.59;4999416;28;45519;-71
2023/01/14 01:37:30;;;;;;;;;0.00;0.00;;;;;10.02;71.72;101094.00;4999292;28;45406;-72
2023/01/14 01:39:56;;;;;;;;;0.00;0.00;;;;;9.95;71.80;101100.69;5016794;28;45545;-71
2023/01/14 01:42:23;;;;;;;;;0.00;0.00;;;;;9.63;72.21;101048.06;5017953;28;45252;-71
2023/01/14 01:45:31;;;;;;;;;0.33;0.00;;;;;9.80;72.60;101092.22;5018777;28;45304;-72
2023/01/14 01:48:12;;;;;;;;;0.00;0.00;;;;;9.81;72.23;101088.78;4989657;28;46107;-72
2023/01/14 01:50:39;;;;;;;;;0.00;0.00;;;;;9.92;71.98;101083.16;5033685;28;45508;-71
2023/01/14 01:53:07;;;;;;;;;0.00;0.00;;;;;9.79;71.26;101038.25;5003353;28;45657;-71
2023/01/14 01:55:36;;;;;;;;;0.00;0.00;;;;;9.88;70.86;101041.25;4997944;28;45485;-69
2023/01/14 01:58:04;;;;;;;;;0.00;0.00;;;;;10.00;70.56;101054.78;5005152;28;45486;-67
2023/01/14 02:00:29;;;;;;;;;0.00;0.00;;;;;10.15;70.27;101078.91;5006145;28;45520;-67
2023/01/14 02:03:02;;;;;;;;;0.00;0.00;;;;;10.14;70.14;101077.09;5013352;28;45457;-71
2023/01/14 02:05:29;;;;;;;;;0.00;0.00;;;;;10.16;70.08;101080.66;5017005;28;45570;-68
2023/01/14 02:07:57;;;;;;;;;0.00;0.00;;;;;10.14;69.85;101090.16;5009430;28;46021;-69
2023/01/14 02:10:37;;;;;;;;;0.00;0.00;;;;;10.14;70.15;101098.00;4998696;28;45607;-71
2023/01/14 02:13:15;;;;;;;;;0.00;0.00;;;;;10.18;69.96;101092.91;5017544;28;45801;-70
2023/01/14 02:16:03;;;;;;;;;0.00;0.00;;;;;10.11;70.10;101095.28;5017734;28;45551;-71
2023/01/14 02:19:02;;;;;;;;;0.00;0.00;;;;;10.04;70.35;101100.19;5015355;28;45462;-72
2023/01/14 02:21:36;;;;;;;;;0.00;0.00;;;;;9.98;70.26;101089.50;5016108;28;45485;-71
2023/01/14 02:24:23;;;;;;;;;0.00;0.00;;;;;9.94;70.51;101075.41;5004821;28;45237;-68
2023/01/14 02:27:30;;;;;;;;;0.00;0.00;;;;;9.90;70.40;101077.00;5013021;28;45175;-70
2023/01/14 02:30:16;;;;;;;;;0.00;0.00;;;;;9.85;70.52;101064.63;5003891;28;45493;-72
2023/01/14 02:32:53;;;;;;;;;0.00;0.00;;;;;9.82;70.58;101056.66;5004679;28;45390;-71
2023/01/14 02:35:26;;;;;;;;;0.00;0.00;;;;;9.84;70.18;101053.25;5013097;28;45536;-70
2023/01/14 02:38:20;;;;;;;;;0.00;0.00;;;;;9.96;69.62;101058.97;4998875;28;45510;-72
2023/01/14 02:41:10;;;;;;;;;0.00;0.00;;;;;9.88;69.42;101020.38;4986589;28;45359;-72
2023/01/14 02:44:07;;;;;;;;;0.00;0.00;;;;;10.16;68.94;101043.22;4998080;28;45352;-71
2023/01/14 02:46:33;;;;;;;;;0.00;0.00;;;;;10.29;68.11;101034.19;4998573;28;45432;-71
2023/01/14 02:49:02;;;;;;;;;0.00;0.00;;;;;10.44;67.15;101039.13;5011189;28;45378;-72
2023/01/14 02:51:28;;;;;;;;;0.00;0.00;;;;;10.53;67.21;101035.13;5010500;28;45442;-70
2023/01/14 02:53:53;;;;;;;;;0.00;0.00;;;;;10.60;66.95;101045.81;5008361;28;45376;-70
2023/01/14 02:56:19;;;;;;;;;0.67;0.00;;;;;10.62;66.74;101045.03;5014957;28;45428;-70
2023/01/14 02:59:20;;;;;;;;;0.33;0.33;;;;;10.63;67.28;101041.59;5013617;28;45719;-70
2023/01/14 03:02:05;;;;;;;;;0.33;0.00;;;;;10.67;66.82;101033.03;5004356;28;46354;-70
2023/01/14 03:04:33;;;;;;;;;0.67;0.00;;;;;10.77;66.00;101031.66;5012132;28;45311;-70
2023/01/14 03:07:05;;;;;;;;;0.00;0.00;;;;;10.83;65.72;101012.72;4996500;28;45396;-71
2023/01/14 03:09:43;;;;;;;;;0.00;0.00;;;;;10.88;65.26;101000.69;5013450;28;45333;-71
2023/01/14 03:12:23;;;;;;;;;0.00;0.00;;;;;10.99;64.97;100983.66;5015483;28;45463;-70
2023/01/14 03:14:58;;;;;;;;;1.00;0.00;;;;;11.13;63.84;100971.06;5001864;28;45352;-71
2023/01/14 03:17:35;;;;;;;;;0.00;0.00;;;;;11.10;63.16;100945.72;5011361;28;45647;-70
2023/01/14 03:20:11;;;;;;;;;1.00;0.00;;;;;11.24;63.22;100969.72;5004298;28;45453;-67
2023/01/14 03:22:37;;;;;;;;;0.00;0.00;;;;;11.27;62.95;100959.34;5015210;28;46254;-67
2023/01/14 03:25:04;;;;;;;;;0.00;0.00;;;;;11.20;63.20;100962.63;4997482;28;45786;-67
2023/01/14 03:27:36;;;;;;;;;0.00;0.00;;;;;11.22;62.65;100960.03;4995493;28;45320;-67
2023/01/14 03:30:13;;;;;;;;;0.67;0.00;;;;;11.24;62.45;100955.75;4996555;28;45470;-67
2023/01/14 03:32:54;;;;;;;;;0.00;0.00;;;;;11.25;62.61;100931.38;5011437;28;46512;-67
2023/01/14 03:35:47;;;;;;;;;0.00;0.00;;;;;11.33;61.95;100930.78;5009639;28;45465;-68
2023/01/14 03:38:21;;;;;;;;;0.00;0.00;;;;;11.24;61.40;100901.72;4998254;28;45598;-71
2023/01/14 03:40:51;;;;;;;;;0.00;0.00;;;;;11.38;61.56;100919.59;5009762;28;45462;-71
2023/01/14 03:43:23;;;;;;;;;0.67;0.67;;;;;11.33;61.78;100912.47;5007325;28;45474;-72
2023/01/14 03:45:49;;;;;;;;;0.00;0.00;;;;;11.38;61.56;100910.03;4995002;28;45398;-70
2023/01/14 03:48:15;;;;;;;;;0.00;0.00;;;;;11.40;61.25;100907.44;5013414;28;45500;-71
2023/01/14 03:50:54;;;;;;;;;0.00;0.00;;;;;11.39;61.39;100903.94;5011700;28;45425;-71
2023/01/14 03:53:27;;;;;;;;;0.00;0.00;;;;;11.39;61.34;100908.28;4986018;28;46266;-71
2023/01/14 03:58:51;;;;;;;;;0.00;0.00;;;;;11.42;60.82;100926.69;5073232;28;45251;-68
2023/01/14 04:01:27;;;;;;;;;0.00;0.00;;;;;11.42;60.72;100916.22;5053743;28;45476;-67
2023/01/14 04:03:54;;;;;;;;;0.00;0.00;;;;;11.40;60.78;100918.81;5052855;28;45517;-71
2023/01/14 04:06:19;;;;;;;;;0.00;0.00;;;;;11.45;60.54;100924.19;5053508;28;45545;-71
2023/01/14 04:08:45;;;;;;;;;1.00;0.33;;;;;11.41;60.54;100919.69;5041680;28;46289;-70
2023/01/14 04:11:11;;;;;;;;;0.00;0.00;;;;;11.45;60.07;100917.22;5048438;28;45569;-68
2023/01/14 04:16:20;;;;;;;;;0.00;0.00;;;;;11.52;59.62;100931.41;5043040;28;45359;-67
2023/01/14 04:18:46;;;;;;;;;2.00;1.00;;;;;11.48;59.95;100919.94;5053112;28;45980;-69
2023/01/14 04:21:11;;;;;;;;;0.00;0.00;;;;;11.49;59.86;100932.16;5036444;28;45395;-71
2023/01/14 04:23:37;;;;;;;;;2.75;2.75;;;;;11.43;60.13;100949.41;5053208;28;45553;-70
2023/01/14 04:26:02;;;;;;;;;2.00;1.33;;;;;11.35;60.64;100947.41;5044156;28;45485;-71
2023/01/14 04:28:28;;;;;;;;;3.00;3.00;;;;;11.27;60.77;100951.50;5045658;28;45407;-72
2023/01/14 04:30:54;;;;;;;;;2.00;2.00;;;;;11.20;61.04;100946.94;5051904;28;45426;-69
2023/01/14 04:33:21;;;;;;;;;1.00;1.00;;;;;11.12;61.47;100956.22;5052515;28;45376;-69
2023/01/14 04:35:48;;;;;;;;;0.00;0.00;;;;;11.02;61.64;100947.19;5044658;28;45571;-68
2023/01/14 04:38:16;;;;;;;;;2.00;2.00;;;;;11.08;61.85;100967.41;5032897;28;46289;-69
2023/01/14 04:40:41;;;;;;;;;0.67;0.67;;;;;11.02;61.67;100951.50;5049277;28;45449;-69
2023/01/14 04:43:07;;;;;;;;;0.00;0.00;;;;;10.81;61.58;100920.31;5053200;28;45311;-71
2023/01/14 04:45:33;;;;;;;;;0.00;0.00;;;;;11.13;61.36;100958.88;5053228;28;45489;-69
2023/01/14 04:47:58;;;;;;;;;0.00;0.00;;;;;11.17;61.34;100959.00;5039860;28;46033;-71
2023/01/14 04:50:41;;;;;;;;;1.00;0.00;;;;;11.22;61.15;100957.41;5048778;28;45504;-72
2023/01/14 04:53:18;;;;;;;;;0.00;0.00;;;;;11.24;61.21;100951.41;5051289;28;45259;-72
2023/01/14 04:55:45;;;;;;;;;0.00;0.00;;;;;11.28;61.01;100929.75;5052823;28;45431;-71
2023/01/14 04:58:13;;;;;;;;;0.00;0.00;;;;;11.38;60.69;100932.66;5067559;28;45505;-71
2023/01/14 05:00:41;;;;;;;;;0.00;0.00;;;;;11.41;60.27;100922.31;5068524;28;45386;-72
2023/01/14 05:03:09;;;;;;;;;0.00;0.00;;;;;11.42;60.02;100925.00;5061520;28;45291;-72
2023/01/14 05:05:36;;;;;;;;;0.00;0.00;;;;;11.26;60.27;100920.97;5072957;28;45390;-71
2023/01/14 05:08:03;;;;;;;;;1.00;1.00;;;;;11.42;60.14;100935.44;5053507;28;46006;-69
2023/01/14 05:10:30;;;;;;;;;0.00;0.00;;;;;11.40;60.19;100933.59;5047081;28;45528;-69
2023/01/14 05:12:56;;;;;;;;;0.00;0.00;;;;;11.46;59.77;100937.31;5041839;28;45264;-71
2023/01/14 05:15:42;;;;;;;;;0.00;0.00;;;;;11.44;60.21;100925.00;5058610;28;45478;-69
2023/01/14 05:18:10;;;;;;;;;0.00;0.00;;;;;11.42;60.11;100921.47;5057795;28;45309;-72
2023/01/14 05:20:36;;;;;;;;;0.00;0.00;;;;;11.45;60.02;100930.31;5058878;28;45524;-71
2023/01/14 05:23:04;;;;;;;;;0.00;0.00;;;;;11.49;59.92;100928.69;5058987;28;45469;-68
2023/01/14 05:25:31;;;;;;;;;0.00;0.00;;;;;11.50;59.55;100920.88;5058389;28;45615;-70
2023/01/14 05:27:59;;;;;;;;;0.00;0.00;;;;;11.57;59.23;100932.44;5058360;28;46577;-71
2023/01/14 05:30:25;;;;;;;;;0.00;0.00;;;;;11.42;59.06;100904.06;5040612;28;45433;-71
2023/01/14 05:32:51;;;;;;;;;0.00;0.00;;;;;11.55;59.32;100941.94;5058328;28;45447;-71
2023/01/14 05:35:17;;;;;;;;;0.00;0.00;;;;;11.49;59.57;100940.03;5055233;28;45468;-68
2023/01/14 05:37:43;;;;;;;;;0.00;0.00;;;;;11.26;59.91;100907.00;5045169;28;46108;-68
2023/01/14 05:40:10;;;;;;;;;0.00;0.00;;;;;11.34;59.74;100916.00;5058752;28;45528;-72
2023/01/14 05:45:37;;;;;;;;;0.00;0.00;;;;;11.33;59.78;100912.47;5058461;28;45418;-68
2023/01/14 05:48:03;;;;;;;;;0.00;0.00;;;;;11.47;59.94;100939.09;5058418;28;45443;-69
2023/01/14 05:50:29;;;;;;;;;0.00;0.00;;;;;11.42;60.36;100958.06;5057809;28;45742;-69
2023/01/14 05:52:54;;;;;;;;;0.00;0.00;;;;;11.35;60.59;100968.34;5058592;28;45497;-72
2023/01/14 05:55:20;;;;;;;;;0.00;0.00;;;;;11.29;60.63;100967.25;5058214;28;45351;-69
2023/01/14 05:57:45;;;;;;;;;0.67;0.67;;;;;11.24;60.76;100964.50;5049023;28;46090;-68
2023/01/14 06:06:20;;;;;;;;;0.00;0.00;;;;;11.12;61.43;100953.59;5050718;28;45477;-72
2023/01/14 06:08:06;;;;;;;;;0.00;0.00;;;;;11.14;61.67;100965.00;5057929;28;45415;-72
2023/01/14 06:10:36;;;;;;;;;0.00;0.00;;;;;11.17;61.70;100978.19;5057611;28;45526;-71
2023/01/14 06:13:10;;;;;;;;;0.33;0.33;;;;;11.20;61.38;100973.06;5058442;28;45489;-71
2023/01/14 06:15:39;;;;;;;;;0.00;0.00;;;;;11.21;61.43;100972.22;5058737;28;45404;-70
2023/01/14 06:18:15;;;;;;;;;0.00;0.00;;;;;11.11;61.20;100955.31;5043265;28;45510;-71
2023/01/14 06:20:44;;;;;;;;;0.00;0.00;;;;;11.18;61.34;100956.44;5057295;28;45401;-71
2023/01/14 06:23:09;;;;;;;;;0.00;0.00;;;;;11.27;61.50;100961.97;5049620;28;45415;-72
2023/01/14 06:25:35;;;;;;;;;1.00;0.00;;;;;11.30;61.54;100959.47;5030273;28;45417;-71
2023/01/14 06:28:01;;;;;;;;;0.00;0.00;;;;;11.33;61.26;100970.03;5054852;28;46113;-71
2023/01/14 06:30:28;;;;;;;;;0.00;0.00;;;;;11.35;61.20;100957.88;5052938;28;45444;-72
2023/01/14 06:32:55;;;;;;;;;0.00;0.00;;;;;11.39;61.71;100968.47;5039049;28;45478;-70
2023/01/14 06:35:23;;;;;;;;;1.00;1.00;;;;;11.37;61.57;100962.28;5049702;28;45435;-71
2023/01/14 06:37:49;;;;;;;;;0.00;0.00;;;;;11.43;61.33;100949.41;5054442;28;45609;-71
2023/01/14 06:40:16;;;;;;;;;0.00;0.00;;;;;11.46;61.47;100962.56;5055143;28;45614;-71
2023/01/14 06:42:42;;;;;;;;;1.00;1.00;;;;;11.50;61.53;100972.34;5046969;28;45509;-71
2023/01/14 06:45:10;;;;;;;;;0.00;0.00;;;;;11.49;61.42;100967.91;5055859;28;45478;-71
2023/01/14 06:47:36;;;;;;;;;0.00;0.00;;;;;11.45;61.63;100969.53;5054744;28;45566;-71
2023/01/14 06:50:03;;;;;;;;;0.00;0.00;;;;;11.43;61.95;100973.84;5055610;28;45752;-70
2023/01/14 06:52:28;;;;;;;;;1.00;0.00;;;;;11.42;61.85;100976.38;5054202;28;45444;-71
2023/01/14 06:54:55;;;;;;;;;0.00;0.00;;;;;11.34;61.95;100957.84;5054465;28;45574;-72
2023/01/14 06:57:22;;;;;;;;;1.00;1.00;;;;;11.38;61.66;100974.50;5052630;28;45880;-72
2023/01/14 06:59:47;;;;;;;;;1.00;1.00;;;;;11.39;61.92;100968.47;5055309;28;45918;-70
2023/01/14 07:02:13;;;;;;;;;0.33;0.33;;;;;11.38;61.77;100966.66;5054844;28;45500;-71
2023/01/14 07:04:39;;;;;;;;;0.33;0.33;;;;;11.42;61.66;100973.78;5055664;28;45999;-68
2023/01/14 07:07:05;;;;;;;;;0.00;0.00;;;;;11.37;61.30;100955.31;5053303;28;45572;-71
2023/01/14 07:09:31;;;;;;;;;0.00;0.00;;;;;11.49;61.22;100973.16;5053359;28;45596;-71
2023/01/14 07:11:57;;;;;;;;;0.00;0.00;;;;;11.49;60.93;100970.53;5052317;28;45756;-69
2023/01/14 07:14:22;;;;;;;;;1.00;1.00;;;;;11.49;61.27;100966.19;5052681;28;45450;-71
2023/01/14 07:16:47;;;;;;;;;0.67;0.67;;;;;11.50;61.23;100961.88;5055906;28;46188;-68
2023/01/14 07:19:13;;;;;;;;;1.00;1.00;;;;;11.59;60.82;100946.44;5056399;28;45498;-72
2023/01/14 07:21:39;;;;;;;;;1.00;1.00;;;;;11.46;60.69;100902.41;5055761;28;45379;-67
2023/01/14 07:24:05;;;;;;;;;0.00;0.00;;;;;11.73;59.87;100905.00;5039130;28;45541;-72
2023/01/14 07:26:30;;;;;;;;;1.00;1.00;;;;;11.74;59.82;100907.69;5057339;28;45608;-68
2023/01/14 07:28:56;;;;;;;;;0.00;0.00;;;;;11.79;59.68;100905.19;5054498;28;45541;-72
2023/01/14 07:31:22;;;;;;;;;1.00;0.00;;;;;11.89;59.36;100941.31;5056970;28;45497;-68
2023/01/14 07:33:47;;;;;;;;;0.00;0.00;;;;;11.92;59.19;100946.66;5057175;28;45541;-67
2023/01/14 07:36:13;;;;;;;;;0.00;0.00;;;;;11.90;59.35;100953.56;5056029;28;45415;-70
2023/01/14 07:38:39;;;;;;;;;1.00;0.00;;;;;11.80;59.76;100946.25;5056049;28;45463;-69
2023/01/14 07:41:13;;;;;;;;;0.00;0.00;;;;;11.72;59.31;100932.91;5056170;28;45339;-67
2023/01/14 07:43:38;;;;;;;;;1.00;0.00;;;;;11.76;59.81;100947.00;5057048;28;45468;-68
2023/01/14 07:46:06;;;;;;;;;1.00;0.67;;;;;11.80;59.79;100951.50;5055401;28;46129;-68
2023/01/14 07:48:32;;;;;;;;;3.33;3.00;;;;;11.86;59.58;100948.19;5052982;28;45576;-68
2023/01/14 07:50:57;;;;;;;;;0.00;0.00;;;;;11.92;59.09;100935.31;5052310;28;45411;-71
2023/01/14 07:53:23;;;;;;;;;2.00;2.00;;;;;11.92;59.15;100927.44;5056277;28;45528;-67
2023/01/14 07:55:48;;;;;;;;;1.00;0.00;;;;;11.74;58.82;100876.28;5054219;28;45540;-71
2023/01/14 07:58:15;;;;;;;;;0.00;0.00;;;;;12.05;58.67;100915.59;5053883;28;45547;-72
2023/01/14 08:00:40;;;;;;;;;0.00;0.00;;;;;12.09;58.46;100907.88;5053052;28;45509;-69
2023/01/14 08:03:06;;;;;;;;;0.00;0.00;;;;;12.22;58.03;100919.63;5049415;28;45602;-68
2023/01/14 08:05:34;;;;;;;;;0.00;0.00;;;;;12.26;58.35;100917.97;5055803;28;46363;-71
2023/01/14 08:08:00;;;;;;;;;0.00;0.00;;;;;12.26;58.08;100912.75;5055593;28;45480;-71
2023/01/14 08:10:26;;;;;;;;;0.00;0.00;;;;;12.19;58.33;100892.44;5054508;28;45375;-71
2023/01/14 08:12:51;;;;;;;;;1.00;0.67;;;;;12.27;58.02;100907.53;5044062;28;45677;-67
2023/01/14 08:15:18;;;;;;;;;1.00;1.00;;;;;12.29;58.05;100903.22;5047180;28;46695;-69
2023/01/14 08:17:43;;;;;;;;;0.00;0.00;;;;;12.32;57.68;100898.06;5050695;28;45492;-71
2023/01/14 08:20:10;;;;;;;;;1.00;0.33;;;;;12.23;57.17;100863.75;5053258;28;45377;-72
2023/01/14 08:22:36;;;;;;;;;2.33;2.00;;;;;12.24;57.30;100865.53;5054339;28;45601;-70
2023/01/14 08:25:02;;;;;;;;;0.00;0.00;;;;;12.27;57.02;100843.78;5054752;28;45449;-71
2023/01/14 08:27:28;;;;;;;;;1.33;0.00;;;;;12.37;57.31;100860.63;5051546;28;45577;-70
2023/01/14 08:29:55;;;;;;;;;1.00;0.33;;;;;12.53;56.69;100878.53;5054351;28;45497;-71
2023/01/14 08:32:20;;;;;;;;;0.00;0.00;;;;;12.59;56.70;100894.44;5043111;28;45513;-71
2023/01/14 08:34:46;;;;;;;;;0.00;0.00;;;;;12.66;56.72;100890.28;5035163;28;45602;-71
2023/01/14 08:37:11;;;;;;;;;0.00;0.00;;;;;12.81;56.17;100888.06;5036055;28;45586;-70
2023/01/14 08:39:37;;;;;;;;;0.00;0.00;;;;;12.93;55.97;100880.50;5051948;28;46037;-71
2023/01/14 08:42:02;;;;;;;;;2.33;2.33;;;;;13.16;55.74;100885.44;5055975;28;45335;-72
2023/01/14 08:44:28;;;;;;;;;0.33;0.00;;;;;13.40;55.02;100893.06;5057137;28;46183;-71
2023/01/14 08:46:54;;;;;;;;;0.00;0.00;;;;;13.62;54.75;100893.56;5059261;28;45537;-68
2023/01/14 08:49:19;;;;;;;;;3.67;3.67;;;;;13.82;54.52;100888.75;5044246;28;45277;-71
2023/01/14 08:51:45;;;;;;;;;7.67;6.00;;;;;13.90;54.24;100868.81;5042454;28;45423;-72
2023/01/14 08:54:10;;;;;;;;;4.00;2.67;;;;;14.18;53.20;100878.13;5058293;28;45473;-71
2023/01/14 08:56:36;;;;;;;;;3.00;3.00;;;;;14.30;52.72;100867.91;5058139;28;45596;-71
2023/01/14 08:59:02;;;;;;;;;3.00;3.00;;;;;14.44;52.24;100857.66;5055431;28;45426;-72
2023/01/14 09:01:29;;;;;;;;;4.33;4.33;;;;;14.60;51.91;100857.97;5039555;28;45755;-71
2023/01/14 09:03:57;;;;;;;;;1.00;1.00;;;;;14.66;51.97;100863.31;5057891;28;45517;-71
2023/01/14 09:06:23;;;;;;;;;4.00;3.67;;;;;14.75;51.89;100873.16;5057903;28;45590;-67
2023/01/14 09:17:10;;;;;;;;;4.00;4.00;;;;;15.09;51.04;100864.09;5056916;28;45492;-70
2023/01/14 09:19:54;;;;;;;;;2.00;2.00;;;;;15.10;51.38;100860.63;5057645;28;45320;-71
2023/01/14 09:22:23;;;;;;;;;3.33;3.33;;;;;15.15;51.24;100853.66;5057021;28;45546;-71
2023/01/14 09:24:50;;;;;;;;;3.00;3.00;;;;;14.41;51.23;100736.69;5054286;28;45455;-71
2023/01/14 09:27:15;;;;;;;;;6.00;5.00;;;;;15.20;51.21;100852.00;5057772;28;45505;-70
2023/01/14 09:29:41;;;;;;;;;4.67;3.00;;;;;15.25;50.91;100845.03;5053664;28;45268;-72
2023/01/14 09:32:09;;;;;;;;;5.33;4.67;;;;;15.28;50.89;100846.88;5058884;28;45508;-72
2023/01/14 09:34:34;;;;;;;;;2.67;2.67;;;;;15.38;50.82;100848.78;5058181;28;46226;-70
2023/01/14 09:37:00;;;;;;;;;1.00;1.00;;;;;15.40;50.63;100836.50;5058616;28;45477;-71
2023/01/14 09:39:26;;;;;;;;;3.00;3.00;;;;;15.56;49.93;100841.97;5044744;28;45756;-67
2023/01/14 09:42:00;;;;;;;;;1.00;1.00;;;;;15.63;50.28;100847.34;5039117;28;45471;-70
2023/01/14 09:44:26;;;;;;;;;1.00;1.00;;;;;15.71;50.18;100856.25;5051148;28;46289;-71
2023/01/14 09:46:52;;;;;;;;;3.00;3.00;;;;;15.71;50.02;100843.06;5058825;28;45438;-71
2023/01/14 09:49:23;;;;;;;;;1.00;1.00;;;;;15.81;49.67;100837.97;5058923;28;45603;-71
2023/01/14 09:52:03;;;;;;;;;0.00;0.00;;;;;15.88;49.16;100831.94;5059260;28;45319;-67
2023/01/14 09:54:47;;;;;;;;;1.00;1.00;;;;;15.96;48.96;100832.91;5058526;28;45484;-69
2023/01/14 09:57:21;;;;;;;;;3.00;2.33;;;;;16.03;48.76;100816.28;5058808;28;45476;-69
2023/01/14 10:00:00;;;;;;;;;2.33;1.33;;;;;16.14;48.91;100820.84;5059188;28;45537;-68
2023/01/14 10:02:58;;;;;;;;;0.00;0.00;;;;;16.19;48.13;100811.22;5059633;28;45244;-70
2023/01/14 10:05:33;;;;;;;;;1.33;1.33;;;;;16.24;47.76;100806.88;5037508;28;45613;-71
2023/01/14 10:08:14;;;;;;;;;0.67;0.67;;;;;16.34;47.97;100823.69;5058535;28;45564;-69
2023/01/14 10:10:42;;;;;;;;;1.00;1.00;;;;;16.48;47.32;100820.31;5058928;28;45493;-68
2023/01/14 10:13:31;;;;;;;;;1.00;1.00;;;;;16.64;47.37;100831.03;5059147;28;45473;-71
2023/01/14 10:16:04;;;;;;;;;0.00;0.00;;;;;16.69;47.45;100834.56;5058930;28;45317;-68
2023/01/14 10:18:39;;;;;;;;;2.00;2.00;;;;;16.73;47.54;100833.72;5058951;28;45550;-70
2023/01/14 10:21:16;;;;;;;;;2.00;1.67;;;;;16.88;47.46;100838.31;5059122;28;45372;-71
2023/01/14 10:23:41;;;;;;;;;6.00;6.00;;;;;16.97;47.46;100829.59;5059454;28;45259;-71
2023/01/14 10:26:14;;;;;;;;;7.33;7.33;;;;;16.95;46.37;100820.78;5058928;28;45362;-69
2023/01/14 10:28:42;;;;;;;;;0.00;0.00;;;;;16.89;46.28;100801.41;5058957;28;45245;-69
2023/01/14 10:31:17;;;;;;;;;0.00;0.00;;;;;16.92;46.24;100811.09;5057923;28;45315;-71
2023/01/14 10:33:45;;;;;;;;;2.00;2.00;;;;;17.05;45.99;100833.16;5039696;28;45389;-72
2023/01/14 10:36:23;;;;;;;;;2.00;2.00;;;;;17.10;46.30;100834.09;5057532;28;46053;-70
2023/01/14 10:38:49;;;;;;;;;1.00;1.00;;;;;17.01;45.59;100836.66;5055571;28;45494;-68
2023/01/14 10:41:16;;;;;;;;;0.67;0.67;;;;;17.02;45.70;100838.44;5057521;28;45553;-70
2023/01/14 10:43:44;;;;;;;;;1.00;1.00;;;;;16.93;45.88;100838.34;5057913;28;45526;-71
2023/01/14 10:46:21;;;;;;;;;0.33;0.33;;;;;16.87;46.24;100834.81;5057563;28;46183;-69
2023/01/14 10:49:02;;;;;;;;;0.00;0.00;;;;;16.90;46.33;100824.25;5055694;28;45473;-69
2023/01/14 10:51:35;;;;;;;;;1.00;1.00;;;;;17.08;45.85;100827.91;5056737;28;45532;-71
2023/01/14 10:54:15;;;;;;;;;3.67;3.67;;;;;17.21;45.13;100826.25;5057450;28;45641;-72
2023/01/14 10:57:04;;;;;;;;;3.00;2.50;;;;;17.33;44.45;100807.88;5057446;28;45497;-73
2023/01/14 10:59:49;;;;;;;;;0.67;0.67;;;;;17.39;44.81;100804.34;5055972;28;45498;-73
2023/01/14 11:02:26;;;;;;;;;2.00;2.00;;;;;17.60;45.03;100812.41;5056562;28;45569;-72
2023/01/14 11:04:52;;;;;;;;;0.67;0.67;;;;;17.81;44.44;100805.50;5056267;28;45477;-71
2023/01/14 11:07:37;;;;;;;;;0.67;0.67;;;;;18.03;44.37;100804.72;5056407;28;45403;-72
2023/01/14 11:10:24;;;;;;;;;1.00;1.00;;;;;18.22;42.96;100799.47;5051981;28;45303;-72
2023/01/14 11:12:52;;;;;;;;;0.67;0.67;;;;;18.26;43.41;100785.38;5055394;28;45553;-72
2023/01/14 11:15:39;;;;;;;;;0.33;0.00;;;;;18.38;43.00;100790.72;5057408;28;45567;-69
2023/01/14 11:18:28;;;;;;;;;0.00;0.00;;;;;18.37;43.33;100786.31;5054673;28;45520;-72
2023/01/14 11:21:15;;;;;;;;;0.00;0.00;;;;;18.34;43.37;100793.34;5056441;28;45240;-70
2023/01/14 11:23:52;;;;;;;;;0.67;0.67;;;;;18.25;43.74;100778.34;5057344;28;45495;-71
2023/01/14 11:26:27;;;;;;;;;0.67;0.67;;;;;18.37;43.83;100774.84;5057940;28;45542;-72
2023/01/14 11:28:53;;;;;;;;;1.00;1.00;;;;;18.48;43.29;100775.72;5056513;28;46310;-70
2023/01/14 11:31:28;;;;;;;;;0.33;0.33;;;;;18.55;43.38;100774.00;5056888;28;45422;-72
2023/01/14 11:33:55;;;;;;;;;0.00;0.00;;;;;18.65;42.48;100773.97;5056855;28;45586;-72
2023/01/14 11:36:23;;;;;;;;;2.67;2.00;;;;;18.73;42.46;100770.47;5057122;28;45518;-68
2023/01/14 11:38:49;;;;;;;;;1.00;1.00;;;;;18.75;42.74;100756.34;5056731;28;45410;-72
2023/01/14 11:41:33;;;;;;;;;3.00;3.00;;;;;18.86;42.17;100757.25;5056964;28;45461;-70
2023/01/14 11:44:00;;;;;;;;;2.00;1.00;;;;;18.86;41.72;100738.72;5056718;28;45230;-69
2023/01/14 11:46:26;;;;;;;;;5.00;4.67;;;;;18.86;42.13;100749.31;5057043;28;45418;-71
2023/01/14 11:49:16;;;;;;;;;0.00;0.00;;;;;18.85;42.45;100749.31;5056821;28;45415;-73
2023/01/14 11:51:59;;;;;;;;;0.00;0.00;;;;;18.72;41.98;100737.84;5054488;28;45523;-72
2023/01/14 11:54:39;;;;;;;;;0.00;0.00;;;;;18.48;42.58;100705.19;5055288;28;45539;-71
2023/01/14 11:57:11;;;;;;;;;0.00;0.00;;;;;18.74;42.31;100728.13;5055374;28;45323;-69
2023/01/14 11:59:39;;;;;;;;;0.00;0.00;;;;;18.82;42.35;100728.13;5056821;28;45474;-70
2023/01/14 12:02:30;;;;;;;;;0.00;0.00;;;;;18.79;42.27;100713.16;5057025;28;45280;-71
2023/01/14 12:05:03;;;;;;;;;0.00;0.00;;;;;18.81;42.20;100702.56;5049506;28;45484;-71
2023/01/14 12:07:41;;;;;;;;;0.00;0.00;;;;;18.63;42.59;100674.31;5057632;28;45546;-69